sensor_id;sensor_type;location;lat;lon;timestamp;P1;durP1;ratioP1;P2;durP2;ratioP2
9082;SDS011;4577;48.704;9.000;2023-12-04T00:01:00;21.63;;;10.40;;
9082;SDS011;4577;48.704;9.000;2023-12-04T00:03:25;19.80;;;10.47;;
9082;SDS011;4577;48.704;9.000;2023-12-04T00:05:51;17.87;;;10.17;;
9082;SDS011;4577;48.704;9.000;2023-12-04T00:08:17;19.13;;;10.10;;
9082;SDS011;4577;48.704;9.000;2023-12-04T00:10:43;20.33;;;10.33;;
9082;SDS011;4577;48.704;9.000;2023-12-04T00:13:09;22.03;;;10.90;;
9082;SDS011;4577;48.704;9.000;2023-12-04T00:15:34;19.67;;;10.87;;
9082;SDS011;4577;48.704;9.000;2023-12-04T00:18:00;24.40;;;10.90;;
9082;SDS011;4577;48.704;9.000;2023-12-04T00:20:25;18.10;;;9.73;;
9082;SDS011;4577;48.704;9.000;2023-12-04T00:22:51;18.00;;;9.80;;
9082;SDS011;4577;48.704;9.000;2023-12-04T00:25:18;19.17;;;10.20;;
9082;SDS011;4577;48.704;9.000;2023-12-04T00:27:43;18.33;;;9.60;;
9082;SDS011;4577;48.704;9.000;2023-12-04T00:30:09;19.00;;;9.40;;
9082;SDS011;4577;48.704;9.000;2023-12-04T00:32:35;22.93;;;9.37;;
9082;SDS011;4577;48.704;9.000;2023-12-04T00:35:01;17.80;;;9.83;;
9082;SDS011;4577;48.704;9.000;2023-12-04T00:37:27;19.17;;;8.77;;
9082;SDS011;4577;48.704;9.000;2023-12-04T00:39:53;16.57;;;8.93;;
9082;SDS011;4577;48.704;9.000;2023-12-04T00:42:19;17.90;;;9.00;;
9082;SDS011;4577;48.704;9.000;2023-12-04T00:44:45;17.50;;;9.67;;
9082;SDS011;4577;48.704;9.000;2023-12-04T00:47:11;15.90;;;8.73;;
9082;SDS011;4577;48.704;9.000;2023-12-04T00:49:37;21.33;;;9.80;;
9082;SDS011;4577;48.704;9.000;2023-12-04T00:52:03;20.83;;;10.20;;
9082;SDS011;4577;48.704;9.000;2023-12-04T00:54:28;17.63;;;9.47;;
9082;SDS011;4577;48.704;9.000;2023-12-04T00:56:54;20.20;;;9.90;;
9082;SDS011;4577;48.704;9.000;2023-12-04T00:59:20;18.20;;;9.13;;
9082;SDS011;4577;48.704;9.000;2023-12-04T01:01:45;19.60;;;10.17;;
9082;SDS011;4577;48.704;9.000;2023-12-04T01:04:11;18.70;;;9.77;;
9082;SDS011;4577;48.704;9.000;2023-12-04T01:06:37;15.53;;;8.80;;
9082;SDS011;4577;48.704;9.000;2023-12-04T01:09:02;17.60;;;9.77;;
9082;SDS011;4577;48.704;9.000;2023-12-04T01:11:28;16.57;;;9.50;;
9082;SDS011;4577;48.704;9.000;2023-12-04T01:13:54;16.47;;;8.87;;
9082;SDS011;4577;48.704;9.000;2023-12-04T01:16:20;15.70;;;8.73;;
9082;SDS011;4577;48.704;9.000;2023-12-04T01:18:46;17.90;;;9.00;;
9082;SDS011;4577;48.704;9.000;2023-12-04T01:21:12;21.83;;;9.30;;
9082;SDS011;4577;48.704;9.000;2023-12-04T01:23:39;18.07;;;9.77;;
9082;SDS011;4577;48.704;9.000;2023-12-04T01:26:05;18.33;;;9.40;;
9082;SDS011;4577;48.704;9.000;2023-12-04T01:28:31;20.20;;;9.67;;
9082;SDS011;4577;48.704;9.000;2023-12-04T01:30:56;17.70;;;8.30;;
9082;SDS011;4577;48.704;9.000;2023-12-04T01:33:22;17.43;;;8.90;;
9082;SDS011;4577;48.704;9.000;2023-12-04T01:35:48;17.20;;;8.70;;
9082;SDS011;4577;48.704;9.000;2023-12-04T01:38:14;19.33;;;8.97;;
9082;SDS011;4577;48.704;9.000;2023-12-04T01:40:40;18.60;;;9.60;;
9082;SDS011;4577;48.704;9.000;2023-12-04T01:43:06;16.70;;;8.97;;
9082;SDS011;4577;48.704;9.000;2023-12-04T01:45:32;13.37;;;7.70;;
9082;SDS011;4577;48.704;9.000;2023-12-04T01:47:58;15.33;;;8.90;;
9082;SDS011;4577;48.704;9.000;2023-12-04T01:50:24;15.97;;;8.40;;
9082;SDS011;4577;48.704;9.000;2023-12-04T01:52:50;16.87;;;8.93;;
9082;SDS011;4577;48.704;9.000;2023-12-04T01:55:18;15.83;;;8.87;;
9082;SDS011;4577;48.704;9.000;2023-12-04T01:57:44;16.97;;;9.23;;
9082;SDS011;4577;48.704;9.000;2023-12-04T02:00:11;16.00;;;8.50;;
9082;SDS011;4577;48.704;9.000;2023-12-04T02:02:38;15.50;;;8.60;;
9082;SDS011;4577;48.704;9.000;2023-12-04T02:05:05;15.40;;;7.90;;
9082;SDS011;4577;48.704;9.000;2023-12-04T02:07:36;16.60;;;8.93;;
9082;SDS011;4577;48.704;9.000;2023-12-04T02:12:35;15.23;;;8.80;;
9082;SDS011;4577;48.704;9.000;2023-12-04T02:15:02;19.60;;;8.90;;
9082;SDS011;4577;48.704;9.000;2023-12-04T02:17:28;13.40;;;8.20;;
9082;SDS011;4577;48.704;9.000;2023-12-04T02:19:54;17.13;;;8.60;;
9082;SDS011;4577;48.704;9.000;2023-12-04T02:22:20;13.50;;;7.60;;
9082;SDS011;4577;48.704;9.000;2023-12-04T02:24:46;13.73;;;7.97;;
9082;SDS011;4577;48.704;9.000;2023-12-04T02:27:15;18.67;;;7.93;;
9082;SDS011;4577;48.704;9.000;2023-12-04T02:29:51;17.70;;;8.20;;
9082;SDS011;4577;48.704;9.000;2023-12-04T02:32:20;14.90;;;8.13;;
9082;SDS011;4577;48.704;9.000;2023-12-04T02:34:48;18.60;;;8.43;;
9082;SDS011;4577;48.704;9.000;2023-12-04T02:37:15;15.80;;;8.37;;
9082;SDS011;4577;48.704;9.000;2023-12-04T02:39:42;17.40;;;8.97;;
9082;SDS011;4577;48.704;9.000;2023-12-04T02:42:08;16.93;;;9.13;;
9082;SDS011;4577;48.704;9.000;2023-12-04T02:44:34;17.47;;;9.27;;
9082;SDS011;4577;48.704;9.000;2023-12-04T02:47:00;15.63;;;8.27;;
9082;SDS011;4577;48.704;9.000;2023-12-04T02:49:26;15.63;;;8.20;;
9082;SDS011;4577;48.704;9.000;2023-12-04T02:51:51;15.47;;;8.60;;
9082;SDS011;4577;48.704;9.000;2023-12-04T02:54:17;16.97;;;9.27;;
9082;SDS011;4577;48.704;9.000;2023-12-04T02:56:43;14.53;;;7.80;;
9082;SDS011;4577;48.704;9.000;2023-12-04T02:59:09;16.33;;;8.73;;
9082;SDS011;4577;48.704;9.000;2023-12-04T03:01:35;12.07;;;7.30;;
9082;SDS011;4577;48.704;9.000;2023-12-04T03:04:00;13.90;;;7.80;;
9082;SDS011;4577;48.704;9.000;2023-12-04T03:06:26;13.17;;;8.33;;
9082;SDS011;4577;48.704;9.000;2023-12-04T03:08:51;14.90;;;8.57;;
9082;SDS011;4577;48.704;9.000;2023-12-04T03:11:17;14.83;;;8.10;;
9082;SDS011;4577;48.704;9.000;2023-12-04T03:13:43;14.00;;;7.57;;
9082;SDS011;4577;48.704;9.000;2023-12-04T03:16:18;15.23;;;7.97;;
9082;SDS011;4577;48.704;9.000;2023-12-04T03:18:44;14.57;;;8.20;;
9082;SDS011;4577;48.704;9.000;2023-12-04T03:21:10;14.13;;;7.43;;
9082;SDS011;4577;48.704;9.000;2023-12-04T03:23:36;15.37;;;8.33;;
9082;SDS011;4577;48.704;9.000;2023-12-04T03:26:02;13.97;;;7.60;;
9082;SDS011;4577;48.704;9.000;2023-12-04T03:28:28;15.03;;;8.77;;
9082;SDS011;4577;48.704;9.000;2023-12-04T03:30:54;13.60;;;8.20;;
9082;SDS011;4577;48.704;9.000;2023-12-04T03:33:20;16.40;;;8.80;;
9082;SDS011;4577;48.704;9.000;2023-12-04T03:35:46;14.97;;;8.27;;
9082;SDS011;4577;48.704;9.000;2023-12-04T03:38:12;15.63;;;8.43;;
9082;SDS011;4577;48.704;9.000;2023-12-04T03:40:38;16.70;;;8.27;;
9082;SDS011;4577;48.704;9.000;2023-12-04T03:43:04;15.47;;;7.90;;
9082;SDS011;4577;48.704;9.000;2023-12-04T03:45:30;13.90;;;8.13;;
9082;SDS011;4577;48.704;9.000;2023-12-04T03:47:55;14.73;;;8.23;;
9082;SDS011;4577;48.704;9.000;2023-12-04T03:50:21;15.40;;;8.00;;
9082;SDS011;4577;48.704;9.000;2023-12-04T03:52:48;17.00;;;7.97;;
9082;SDS011;4577;48.704;9.000;2023-12-04T03:55:14;14.63;;;7.93;;
9082;SDS011;4577;48.704;9.000;2023-12-04T03:57:39;17.10;;;8.70;;
9082;SDS011;4577;48.704;9.000;2023-12-04T04:00:05;15.87;;;8.47;;
9082;SDS011;4577;48.704;9.000;2023-12-04T04:02:31;16.00;;;8.40;;
9082;SDS011;4577;48.704;9.000;2023-12-04T04:04:57;21.03;;;8.63;;
9082;SDS011;4577;48.704;9.000;2023-12-04T04:07:22;17.13;;;8.50;;
9082;SDS011;4577;48.704;9.000;2023-12-04T04:09:48;18.17;;;10.13;;
9082;SDS011;4577;48.704;9.000;2023-12-04T04:12:13;16.43;;;8.77;;
9082;SDS011;4577;48.704;9.000;2023-12-04T04:14:39;16.57;;;9.20;;
9082;SDS011;4577;48.704;9.000;2023-12-04T04:17:05;16.07;;;8.80;;
9082;SDS011;4577;48.704;9.000;2023-12-04T04:19:31;16.70;;;9.30;;
9082;SDS011;4577;48.704;9.000;2023-12-04T04:21:57;15.73;;;8.10;;
9082;SDS011;4577;48.704;9.000;2023-12-04T04:24:23;12.87;;;7.83;;
9082;SDS011;4577;48.704;9.000;2023-12-04T04:26:49;15.50;;;8.43;;
9082;SDS011;4577;48.704;9.000;2023-12-04T04:29:15;14.67;;;8.10;;
9082;SDS011;4577;48.704;9.000;2023-12-04T04:31:40;15.47;;;8.63;;
9082;SDS011;4577;48.704;9.000;2023-12-04T04:34:06;14.83;;;7.90;;
9082;SDS011;4577;48.704;9.000;2023-12-04T04:36:32;19.17;;;9.70;;
9082;SDS011;4577;48.704;9.000;2023-12-04T04:38:57;18.07;;;9.37;;
9082;SDS011;4577;48.704;9.000;2023-12-04T04:41:23;15.83;;;8.97;;
9082;SDS011;4577;48.704;9.000;2023-12-04T04:43:48;16.03;;;8.47;;
9082;SDS011;4577;48.704;9.000;2023-12-04T04:46:14;13.57;;;8.03;;
9082;SDS011;4577;48.704;9.000;2023-12-04T04:48:40;12.87;;;7.53;;
9082;SDS011;4577;48.704;9.000;2023-12-04T04:51:06;18.13;;;9.07;;
9082;SDS011;4577;48.704;9.000;2023-12-04T04:53:32;17.23;;;8.63;;
9082;SDS011;4577;48.704;9.000;2023-12-04T04:55:58;15.53;;;8.60;;
9082;SDS011;4577;48.704;9.000;2023-12-04T04:58:24;15.33;;;8.20;;
9082;SDS011;4577;48.704;9.000;2023-12-04T05:00:49;17.17;;;8.60;;
9082;SDS011;4577;48.704;9.000;2023-12-04T05:03:15;13.27;;;7.70;;
9082;SDS011;4577;48.704;9.000;2023-12-04T05:05:41;14.60;;;7.90;;
9082;SDS011;4577;48.704;9.000;2023-12-04T05:08:07;16.03;;;8.43;;
9082;SDS011;4577;48.704;9.000;2023-12-04T05:10:33;17.00;;;9.17;;
9082;SDS011;4577;48.704;9.000;2023-12-04T05:12:58;17.13;;;8.47;;
9082;SDS011;4577;48.704;9.000;2023-12-04T05:15:24;17.27;;;8.97;;
9082;SDS011;4577;48.704;9.000;2023-12-04T05:17:51;16.37;;;8.60;;
9082;SDS011;4577;48.704;9.000;2023-12-04T05:20:16;14.73;;;7.97;;
9082;SDS011;4577;48.704;9.000;2023-12-04T05:22:43;17.20;;;8.90;;
9082;SDS011;4577;48.704;9.000;2023-12-04T05:25:09;15.43;;;8.53;;
9082;SDS011;4577;48.704;9.000;2023-12-04T05:27:34;14.77;;;7.83;;
9082;SDS011;4577;48.704;9.000;2023-12-04T05:30:00;17.70;;;8.57;;
9082;SDS011;4577;48.704;9.000;2023-12-04T05:32:27;18.50;;;9.53;;
9082;SDS011;4577;48.704;9.000;2023-12-04T05:34:52;15.47;;;8.50;;
9082;SDS011;4577;48.704;9.000;2023-12-04T05:37:18;15.00;;;8.30;;
9082;SDS011;4577;48.704;9.000;2023-12-04T05:39:44;16.63;;;8.00;;
9082;SDS011;4577;48.704;9.000;2023-12-04T05:42:10;13.23;;;7.90;;
9082;SDS011;4577;48.704;9.000;2023-12-04T05:44:36;13.63;;;7.67;;
9082;SDS011;4577;48.704;9.000;2023-12-04T05:47:01;13.27;;;7.97;;
9082;SDS011;4577;48.704;9.000;2023-12-04T05:49:27;14.80;;;7.80;;
9082;SDS011;4577;48.704;9.000;2023-12-04T05:51:54;17.00;;;7.80;;
9082;SDS011;4577;48.704;9.000;2023-12-04T05:54:19;15.70;;;8.53;;
9082;SDS011;4577;48.704;9.000;2023-12-04T05:56:46;14.27;;;7.30;;
9082;SDS011;4577;48.704;9.000;2023-12-04T05:59:11;12.70;;;7.00;;
9082;SDS011;4577;48.704;9.000;2023-12-04T06:01:37;16.67;;;8.57;;
9082;SDS011;4577;48.704;9.000;2023-12-04T06:04:03;13.23;;;7.30;;
9082;SDS011;4577;48.704;9.000;2023-12-04T06:06:29;18.40;;;8.67;;
9082;SDS011;4577;48.704;9.000;2023-12-04T06:08:55;17.43;;;9.10;;
9082;SDS011;4577;48.704;9.000;2023-12-04T06:11:20;21.10;;;9.70;;
9082;SDS011;4577;48.704;9.000;2023-12-04T06:13:47;16.10;;;8.13;;
9082;SDS011;4577;48.704;9.000;2023-12-04T06:16:13;12.57;;;7.50;;
9082;SDS011;4577;48.704;9.000;2023-12-04T06:18:38;14.87;;;7.70;;
9082;SDS011;4577;48.704;9.000;2023-12-04T06:21:04;18.87;;;9.00;;
9082;SDS011;4577;48.704;9.000;2023-12-04T06:23:31;17.60;;;8.23;;
9082;SDS011;4577;48.704;9.000;2023-12-04T06:25:57;13.23;;;8.13;;
9082;SDS011;4577;48.704;9.000;2023-12-04T06:28:23;14.00;;;7.97;;
9082;SDS011;4577;48.704;9.000;2023-12-04T06:30:49;14.60;;;7.77;;
9082;SDS011;4577;48.704;9.000;2023-12-04T06:33:16;14.87;;;7.60;;
9082;SDS011;4577;48.704;9.000;2023-12-04T06:35:43;14.87;;;7.87;;
9082;SDS011;4577;48.704;9.000;2023-12-04T06:38:09;16.60;;;7.87;;
9082;SDS011;4577;48.704;9.000;2023-12-04T06:40:39;13.97;;;7.57;;
9082;SDS011;4577;48.704;9.000;2023-12-04T06:43:05;20.17;;;7.53;;
9082;SDS011;4577;48.704;9.000;2023-12-04T06:45:32;13.57;;;6.93;;
9082;SDS011;4577;48.704;9.000;2023-12-04T06:47:58;15.53;;;8.47;;
9082;SDS011;4577;48.704;9.000;2023-12-04T06:50:25;16.10;;;8.10;;
9082;SDS011;4577;48.704;9.000;2023-12-04T06:52:51;18.47;;;8.13;;
9082;SDS011;4577;48.704;9.000;2023-12-04T06:55:17;31.67;;;11.63;;
9082;SDS011;4577;48.704;9.000;2023-12-04T06:57:43;24.73;;;10.47;;
9082;SDS011;4577;48.704;9.000;2023-12-04T07:00:09;14.53;;;6.70;;
9082;SDS011;4577;48.704;9.000;2023-12-04T07:02:39;37.27;;;8.77;;
9082;SDS011;4577;48.704;9.000;2023-12-04T07:05:05;12.50;;;6.63;;
9082;SDS011;4577;48.704;9.000;2023-12-04T07:07:31;15.93;;;7.20;;
9082;SDS011;4577;48.704;9.000;2023-12-04T07:09:57;22.00;;;7.70;;
9082;SDS011;4577;48.704;9.000;2023-12-04T07:12:23;23.17;;;7.20;;
9082;SDS011;4577;48.704;9.000;2023-12-04T07:14:49;14.37;;;7.07;;
9082;SDS011;4577;48.704;9.000;2023-12-04T07:17:15;17.70;;;7.23;;
9082;SDS011;4577;48.704;9.000;2023-12-04T07:19:41;27.37;;;8.70;;
9082;SDS011;4577;48.704;9.000;2023-12-04T07:22:07;19.07;;;7.83;;
9082;SDS011;4577;48.704;9.000;2023-12-04T07:24:33;14.63;;;7.27;;
9082;SDS011;4577;48.704;9.000;2023-12-04T07:26:59;40.50;;;11.33;;
9082;SDS011;4577;48.704;9.000;2023-12-04T07:29:25;81.97;;;15.80;;
9082;SDS011;4577;48.704;9.000;2023-12-04T07:31:51;24.53;;;9.40;;
9082;SDS011;4577;48.704;9.000;2023-12-04T07:34:16;56.80;;;13.77;;
9082;SDS011;4577;48.704;9.000;2023-12-04T07:36:42;25.27;;;10.33;;
9082;SDS011;4577;48.704;9.000;2023-12-04T07:39:09;23.70;;;9.53;;
9082;SDS011;4577;48.704;9.000;2023-12-04T07:41:35;17.03;;;9.00;;
9082;SDS011;4577;48.704;9.000;2023-12-04T07:44:01;15.40;;;8.27;;
9082;SDS011;4577;48.704;9.000;2023-12-04T07:46:28;18.10;;;8.77;;
9082;SDS011;4577;48.704;9.000;2023-12-04T07:48:54;18.20;;;8.63;;
9082;SDS011;4577;48.704;9.000;2023-12-04T07:51:20;16.00;;;8.70;;
9082;SDS011;4577;48.704;9.000;2023-12-04T07:53:45;12.57;;;7.37;;
9082;SDS011;4577;48.704;9.000;2023-12-04T07:56:12;19.27;;;9.30;;
9082;SDS011;4577;48.704;9.000;2023-12-04T07:58:39;14.70;;;8.00;;
9082;SDS011;4577;48.704;9.000;2023-12-04T08:01:04;12.40;;;7.03;;
9082;SDS011;4577;48.704;9.000;2023-12-04T08:03:31;14.17;;;7.93;;
9082;SDS011;4577;48.704;9.000;2023-12-04T08:05:57;16.53;;;8.37;;
9082;SDS011;4577;48.704;9.000;2023-12-04T08:08:26;16.53;;;8.00;;
9082;SDS011;4577;48.704;9.000;2023-12-04T08:10:52;14.00;;;7.83;;
9082;SDS011;4577;48.704;9.000;2023-12-04T08:13:18;12.87;;;6.77;;
9082;SDS011;4577;48.704;9.000;2023-12-04T08:15:44;17.87;;;8.90;;
9082;SDS011;4577;48.704;9.000;2023-12-04T08:18:09;16.27;;;8.57;;
9082;SDS011;4577;48.704;9.000;2023-12-04T08:20:35;32.23;;;10.57;;
9082;SDS011;4577;48.704;9.000;2023-12-04T08:23:01;24.13;;;9.23;;
9082;SDS011;4577;48.704;9.000;2023-12-04T08:25:28;15.87;;;8.53;;
9082;SDS011;4577;48.704;9.000;2023-12-04T08:27:55;15.33;;;8.10;;
9082;SDS011;4577;48.704;9.000;2023-12-04T08:30:20;15.70;;;7.93;;
9082;SDS011;4577;48.704;9.000;2023-12-04T08:32:46;16.20;;;8.33;;
9082;SDS011;4577;48.704;9.000;2023-12-04T08:35:12;17.00;;;8.63;;
9082;SDS011;4577;48.704;9.000;2023-12-04T08:37:38;17.73;;;7.93;;
9082;SDS011;4577;48.704;9.000;2023-12-04T08:40:05;24.80;;;10.60;;
9082;SDS011;4577;48.704;9.000;2023-12-04T08:42:33;19.63;;;10.30;;
9082;SDS011;4577;48.704;9.000;2023-12-04T08:44:59;16.23;;;7.80;;
9082;SDS011;4577;48.704;9.000;2023-12-04T08:47:24;18.87;;;9.40;;
9082;SDS011;4577;48.704;9.000;2023-12-04T08:49:50;12.10;;;7.63;;
9082;SDS011;4577;48.704;9.000;2023-12-04T08:52:15;18.70;;;8.87;;
9082;SDS011;4577;48.704;9.000;2023-12-04T08:54:42;30.40;;;11.40;;
9082;SDS011;4577;48.704;9.000;2023-12-04T08:57:08;17.30;;;8.93;;
9082;SDS011;4577;48.704;9.000;2023-12-04T08:59:34;21.20;;;10.30;;
9082;SDS011;4577;48.704;9.000;2023-12-04T09:02:00;15.10;;;8.60;;
9082;SDS011;4577;48.704;9.000;2023-12-04T09:04:29;21.07;;;10.10;;
9082;SDS011;4577;48.704;9.000;2023-12-04T09:06:56;28.43;;;12.07;;
9082;SDS011;4577;48.704;9.000;2023-12-04T09:09:22;27.97;;;12.40;;
9082;SDS011;4577;48.704;9.000;2023-12-04T09:11:48;68.33;;;12.77;;
9082;SDS011;4577;48.704;9.000;2023-12-04T09:14:13;22.43;;;9.13;;
9082;SDS011;4577;48.704;9.000;2023-12-04T09:16:39;63.00;;;13.97;;
9082;SDS011;4577;48.704;9.000;2023-12-04T09:19:05;64.97;;;13.73;;
9082;SDS011;4577;48.704;9.000;2023-12-04T09:21:31;34.30;;;9.47;;
9082;SDS011;4577;48.704;9.000;2023-12-04T09:23:57;18.50;;;7.63;;
9082;SDS011;4577;48.704;9.000;2023-12-04T09:26:23;17.77;;;8.30;;
9082;SDS011;4577;48.704;9.000;2023-12-04T09:28:49;11.90;;;7.23;;
9082;SDS011;4577;48.704;9.000;2023-12-04T09:31:15;14.20;;;8.20;;
9082;SDS011;4577;48.704;9.000;2023-12-04T09:33:41;17.80;;;9.77;;
9082;SDS011;4577;48.704;9.000;2023-12-04T09:36:07;15.23;;;8.27;;
9082;SDS011;4577;48.704;9.000;2023-12-04T09:38:33;14.80;;;8.63;;
9082;SDS011;4577;48.704;9.000;2023-12-04T09:41:01;18.37;;;10.10;;
9082;SDS011;4577;48.704;9.000;2023-12-04T09:43:30;18.00;;;9.47;;
9082;SDS011;4577;48.704;9.000;2023-12-04T09:45:57;20.93;;;10.87;;
9082;SDS011;4577;48.704;9.000;2023-12-04T09:48:24;21.70;;;11.27;;
9082;SDS011;4577;48.704;9.000;2023-12-04T09:50:51;26.97;;;11.87;;
9082;SDS011;4577;48.704;9.000;2023-12-04T09:53:18;38.67;;;16.83;;
9082;SDS011;4577;48.704;9.000;2023-12-04T09:55:47;23.40;;;11.10;;
9082;SDS011;4577;48.704;9.000;2023-12-04T09:58:14;41.63;;;18.77;;
9082;SDS011;4577;48.704;9.000;2023-12-04T10:00:41;25.63;;;11.97;;
9082;SDS011;4577;48.704;9.000;2023-12-04T10:03:08;24.27;;;11.80;;
9082;SDS011;4577;48.704;9.000;2023-12-04T10:05:34;18.73;;;10.43;;
9082;SDS011;4577;48.704;9.000;2023-12-04T10:08:00;20.37;;;10.27;;
9082;SDS011;4577;48.704;9.000;2023-12-04T10:10:26;18.87;;;10.50;;
9082;SDS011;4577;48.704;9.000;2023-12-04T10:12:51;23.03;;;11.77;;
9082;SDS011;4577;48.704;9.000;2023-12-04T10:15:17;19.90;;;11.50;;
9082;SDS011;4577;48.704;9.000;2023-12-04T10:17:43;41.87;;;12.93;;
9082;SDS011;4577;48.704;9.000;2023-12-04T10:20:10;21.03;;;10.80;;
9082;SDS011;4577;48.704;9.000;2023-12-04T10:25:24;21.53;;;10.70;;
9082;SDS011;4577;48.704;9.000;2023-12-04T10:27:51;20.83;;;11.07;;
9082;SDS011;4577;48.704;9.000;2023-12-04T10:30:26;19.83;;;10.77;;
9082;SDS011;4577;48.704;9.000;2023-12-04T10:32:54;20.57;;;11.27;;
9082;SDS011;4577;48.704;9.000;2023-12-04T10:35:29;19.80;;;9.27;;
9082;SDS011;4577;48.704;9.000;2023-12-04T10:37:58;15.17;;;9.23;;
9082;SDS011;4577;48.704;9.000;2023-12-04T10:40:28;17.47;;;8.83;;
9082;SDS011;4577;48.704;9.000;2023-12-04T10:45:45;13.23;;;8.50;;
9082;SDS011;4577;48.704;9.000;2023-12-04T10:48:12;24.47;;;12.00;;
9082;SDS011;4577;48.704;9.000;2023-12-04T10:50:39;31.97;;;12.33;;
9082;SDS011;4577;48.704;9.000;2023-12-04T10:53:07;18.93;;;9.90;;
9082;SDS011;4577;48.704;9.000;2023-12-04T10:55:34;15.00;;;7.97;;
9082;SDS011;4577;48.704;9.000;2023-12-04T10:58:01;17.97;;;8.90;;
9082;SDS011;4577;48.704;9.000;2023-12-04T11:00:30;24.83;;;9.37;;
9082;SDS011;4577;48.704;9.000;2023-12-04T11:03:04;18.93;;;10.60;;
9082;SDS011;4577;48.704;9.000;2023-12-04T11:05:37;26.60;;;12.40;;
9082;SDS011;4577;48.704;9.000;2023-12-04T11:08:14;46.67;;;13.50;;
9082;SDS011;4577;48.704;9.000;2023-12-04T11:10:45;69.33;;;27.60;;
9082;SDS011;4577;48.704;9.000;2023-12-04T11:13:17;37.97;;;18.00;;
9082;SDS011;4577;48.704;9.000;2023-12-04T11:15:47;23.20;;;11.90;;
9082;SDS011;4577;48.704;9.000;2023-12-04T11:18:15;29.83;;;14.20;;
9082;SDS011;4577;48.704;9.000;2023-12-04T11:20:46;26.73;;;12.73;;
9082;SDS011;4577;48.704;9.000;2023-12-04T11:23:15;35.93;;;10.80;;
9082;SDS011;4577;48.704;9.000;2023-12-04T11:25:41;18.70;;;8.37;;
9082;SDS011;4577;48.704;9.000;2023-12-04T11:28:08;26.70;;;10.60;;
9082;SDS011;4577;48.704;9.000;2023-12-04T11:30:35;44.83;;;17.50;;
9082;SDS011;4577;48.704;9.000;2023-12-04T11:33:01;56.03;;;18.37;;
9082;SDS011;4577;48.704;9.000;2023-12-04T11:35:28;32.07;;;11.53;;
9082;SDS011;4577;48.704;9.000;2023-12-04T11:37:53;15.03;;;8.60;;
9082;SDS011;4577;48.704;9.000;2023-12-04T11:40:19;14.90;;;9.00;;
9082;SDS011;4577;48.704;9.000;2023-12-04T11:42:45;19.23;;;8.70;;
9082;SDS011;4577;48.704;9.000;2023-12-04T11:45:17;22.07;;;10.33;;
9082;SDS011;4577;48.704;9.000;2023-12-04T11:47:55;53.17;;;12.60;;
9082;SDS011;4577;48.704;9.000;2023-12-04T11:50:23;34.90;;;16.60;;
9082;SDS011;4577;48.704;9.000;2023-12-04T11:52:50;63.53;;;26.00;;
9082;SDS011;4577;48.704;9.000;2023-12-04T11:55:16;188.03;;;55.67;;
9082;SDS011;4577;48.704;9.000;2023-12-04T11:57:48;29.10;;;13.03;;
9082;SDS011;4577;48.704;9.000;2023-12-04T12:05:19;22.00;;;10.03;;
9082;SDS011;4577;48.704;9.000;2023-12-04T12:07:46;32.93;;;11.10;;
9082;SDS011;4577;48.704;9.000;2023-12-04T12:10:12;35.63;;;12.67;;
9082;SDS011;4577;48.704;9.000;2023-12-04T12:12:42;49.43;;;15.40;;
9082;SDS011;4577;48.704;9.000;2023-12-04T12:15:08;74.43;;;28.27;;
9082;SDS011;4577;48.704;9.000;2023-12-04T12:17:35;52.20;;;20.77;;
9082;SDS011;4577;48.704;9.000;2023-12-04T12:20:08;23.67;;;11.23;;
9082;SDS011;4577;48.704;9.000;2023-12-04T12:22:36;26.00;;;11.20;;
9082;SDS011;4577;48.704;9.000;2023-12-04T12:25:09;24.23;;;11.23;;
9082;SDS011;4577;48.704;9.000;2023-12-04T12:27:36;25.93;;;14.83;;
9082;SDS011;4577;48.704;9.000;2023-12-04T12:30:03;34.40;;;15.07;;
9082;SDS011;4577;48.704;9.000;2023-12-04T12:32:33;13.60;;;8.97;;
9082;SDS011;4577;48.704;9.000;2023-12-04T12:34:59;43.23;;;18.90;;
9082;SDS011;4577;48.704;9.000;2023-12-04T12:37:24;22.17;;;10.73;;
9082;SDS011;4577;48.704;9.000;2023-12-04T12:39:51;25.40;;;11.90;;
9082;SDS011;4577;48.704;9.000;2023-12-04T12:42:21;22.53;;;9.93;;
9082;SDS011;4577;48.704;9.000;2023-12-04T12:44:50;33.33;;;12.07;;
9082;SDS011;4577;48.704;9.000;2023-12-04T12:47:16;16.93;;;9.60;;
9082;SDS011;4577;48.704;9.000;2023-12-04T12:49:41;36.27;;;17.50;;
9082;SDS011;4577;48.704;9.000;2023-12-04T12:52:09;19.57;;;10.43;;
9082;SDS011;4577;48.704;9.000;2023-12-04T12:54:39;65.30;;;13.30;;
9082;SDS011;4577;48.704;9.000;2023-12-04T12:57:06;58.30;;;21.63;;
9082;SDS011;4577;48.704;9.000;2023-12-04T12:59:32;30.60;;;14.20;;
9082;SDS011;4577;48.704;9.000;2023-12-04T13:01:58;86.20;;;30.47;;
9082;SDS011;4577;48.704;9.000;2023-12-04T13:04:34;50.40;;;20.97;;
9082;SDS011;4577;48.704;9.000;2023-12-04T13:07:00;27.43;;;11.30;;
9082;SDS011;4577;48.704;9.000;2023-12-04T13:09:28;52.07;;;22.10;;
9082;SDS011;4577;48.704;9.000;2023-12-04T13:11:54;19.50;;;10.70;;
9082;SDS011;4577;48.704;9.000;2023-12-04T13:14:20;59.30;;;14.60;;
9082;SDS011;4577;48.704;9.000;2023-12-04T13:16:46;20.50;;;9.70;;
9082;SDS011;4577;48.704;9.000;2023-12-04T13:19:11;27.40;;;11.50;;
9082;SDS011;4577;48.704;9.000;2023-12-04T13:21:37;13.33;;;8.70;;
9082;SDS011;4577;48.704;9.000;2023-12-04T13:24:03;26.23;;;12.57;;
9082;SDS011;4577;48.704;9.000;2023-12-04T13:26:32;37.70;;;17.07;;
9082;SDS011;4577;48.704;9.000;2023-12-04T13:28:58;140.60;;;52.50;;
9082;SDS011;4577;48.704;9.000;2023-12-04T13:31:24;46.00;;;23.00;;
9082;SDS011;4577;48.704;9.000;2023-12-04T13:33:50;21.27;;;11.77;;
9082;SDS011;4577;48.704;9.000;2023-12-04T13:36:15;23.10;;;11.70;;
9082;SDS011;4577;48.704;9.000;2023-12-04T13:38:41;29.83;;;14.40;;
9082;SDS011;4577;48.704;9.000;2023-12-04T13:41:07;27.63;;;14.00;;
9082;SDS011;4577;48.704;9.000;2023-12-04T13:43:52;24.47;;;12.40;;
9082;SDS011;4577;48.704;9.000;2023-12-04T13:46:18;24.03;;;12.10;;
9082;SDS011;4577;48.704;9.000;2023-12-04T13:48:44;19.10;;;11.00;;
9082;SDS011;4577;48.704;9.000;2023-12-04T13:51:10;19.00;;;10.47;;
9082;SDS011;4577;48.704;9.000;2023-12-04T13:53:37;53.67;;;14.47;;
9082;SDS011;4577;48.704;9.000;2023-12-04T13:56:08;27.37;;;12.53;;
9082;SDS011;4577;48.704;9.000;2023-12-04T13:58:37;29.70;;;15.40;;
9082;SDS011;4577;48.704;9.000;2023-12-04T14:01:05;35.17;;;16.80;;
9082;SDS011;4577;48.704;9.000;2023-12-04T14:03:46;41.80;;;18.13;;
9082;SDS011;4577;48.704;9.000;2023-12-04T14:06:13;34.60;;;13.97;;
9082;SDS011;4577;48.704;9.000;2023-12-04T14:08:39;42.00;;;21.93;;
9082;SDS011;4577;48.704;9.000;2023-12-04T14:11:05;23.97;;;12.70;;
9082;SDS011;4577;48.704;9.000;2023-12-04T14:13:32;20.27;;;11.90;;
9082;SDS011;4577;48.704;9.000;2023-12-04T14:15:58;19.30;;;11.47;;
9082;SDS011;4577;48.704;9.000;2023-12-04T14:18:23;22.50;;;11.63;;
9082;SDS011;4577;48.704;9.000;2023-12-04T14:20:51;24.20;;;12.90;;
9082;SDS011;4577;48.704;9.000;2023-12-04T14:23:17;29.97;;;13.30;;
9082;SDS011;4577;48.704;9.000;2023-12-04T14:25:44;23.57;;;12.00;;
9082;SDS011;4577;48.704;9.000;2023-12-04T14:28:10;49.90;;;22.53;;
9082;SDS011;4577;48.704;9.000;2023-12-04T14:30:36;71.90;;;28.37;;
9082;SDS011;4577;48.704;9.000;2023-12-04T14:33:02;61.97;;;25.77;;
9082;SDS011;4577;48.704;9.000;2023-12-04T14:35:28;45.70;;;21.20;;
9082;SDS011;4577;48.704;9.000;2023-12-04T14:37:54;29.93;;;15.03;;
9082;SDS011;4577;48.704;9.000;2023-12-04T14:40:19;71.80;;;22.03;;
9082;SDS011;4577;48.704;9.000;2023-12-04T14:42:45;86.80;;;27.90;;
9082;SDS011;4577;48.704;9.000;2023-12-04T14:45:12;53.70;;;17.07;;
9082;SDS011;4577;48.704;9.000;2023-12-04T14:47:39;174.57;;;82.33;;
9082;SDS011;4577;48.704;9.000;2023-12-04T14:50:06;185.13;;;83.40;;
9082;SDS011;4577;48.704;9.000;2023-12-04T14:52:32;62.83;;;28.37;;
9082;SDS011;4577;48.704;9.000;2023-12-04T14:54:59;27.10;;;13.27;;
9082;SDS011;4577;48.704;9.000;2023-12-04T14:57:34;41.30;;;17.73;;
9082;SDS011;4577;48.704;9.000;2023-12-04T15:00:09;57.77;;;23.70;;
9082;SDS011;4577;48.704;9.000;2023-12-04T15:02:54;43.30;;;20.73;;
9082;SDS011;4577;48.704;9.000;2023-12-04T15:05:39;22.30;;;9.90;;